createdAt,value
2022-12-20T00:00:29.615Z,-1.94
2022-12-20T00:03:34.487Z,-1.62
2022-12-20T00:06:39.977Z,-1.65
2022-12-20T00:09:45.062Z,-1.83
2022-12-20T00:12:49.962Z,-1.69
2022-12-20T00:16:07.083Z,-1.65
2022-12-20T00:19:14.390Z,-1.69
2022-12-20T00:22:19.292Z,-1.64
2022-12-20T00:25:24.465Z,-1.63
2022-12-20T00:28:29.445Z,-1.64
2022-12-20T00:31:37.172Z,-1.71
2022-12-20T00:34:42.154Z,-1.62
2022-12-20T00:37:47.016Z,-1.67
2022-12-20T00:41:01.665Z,-1.42
2022-12-20T00:44:07.293Z,-1.48
2022-12-20T00:47:15.035Z,-1.64
2022-12-20T00:50:20.446Z,-1.66
2022-12-20T00:53:26.713Z,-1.64
2022-12-20T00:56:33.144Z,-1.49
2022-12-20T00:59:38.258Z,-1.50
2022-12-20T01:02:45.942Z,-1.44
2022-12-20T01:05:55.858Z,-1.43
2022-12-20T01:09:01.060Z,-1.58
2022-12-20T01:12:05.962Z,-1.44
2022-12-20T01:15:12.247Z,-1.46
2022-12-20T01:18:19.722Z,-1.45
2022-12-20T01:21:27.246Z,-1.56
2022-12-20T01:24:32.325Z,-1.36
2022-12-20T01:27:37.170Z,-1.34
2022-12-20T01:30:43.551Z,-1.19
2022-12-20T01:33:52.757Z,-1.34
2022-12-20T01:36:57.622Z,-1.33
2022-12-20T01:40:02.532Z,-1.22
2022-12-20T01:43:07.408Z,-1.11
2022-12-20T01:46:12.333Z,-1.03
2022-12-20T01:49:24.018Z,-1.30
2022-12-20T01:52:35.356Z,-1.41
2022-12-20T01:55:40.525Z,-1.25
2022-12-20T01:58:46.602Z,-1.23
2022-12-20T02:01:51.843Z,-1.21
2022-12-20T02:04:59.429Z,-1.24
2022-12-20T02:08:04.367Z,-1.13
2022-12-20T02:11:18.835Z,-0.85
2022-12-20T02:14:39.230Z,-0.96
2022-12-20T02:17:52.555Z,-1.05
2022-12-20T02:21:19.788Z,-1.31
2022-12-20T02:24:54.215Z,-1.32
2022-12-20T02:28:06.921Z,-1.19
2022-12-20T02:31:19.053Z,-1.16
2022-12-20T02:34:27.381Z,-1.27
2022-12-20T02:37:35.133Z,-1.31
2022-12-20T02:40:44.595Z,-1.31
2022-12-20T02:44:20.320Z,-1.38
2022-12-20T02:47:32.804Z,-1.22
2022-12-20T02:50:41.172Z,-1.21
2022-12-20T02:53:46.351Z,-1.31
2022-12-20T02:56:57.651Z,-1.37
2022-12-20T03:00:08.516Z,-1.09
2022-12-20T03:03:25.463Z,-1.31
2022-12-20T03:06:30.923Z,-1.30
2022-12-20T03:09:38.043Z,-0.99
2022-12-20T03:12:42.970Z,-1.14
2022-12-20T03:15:48.007Z,-0.99
2022-12-20T03:18:55.456Z,-1.03
2022-12-20T03:22:00.818Z,-1.08
2022-12-20T03:25:05.904Z,-1.16
2022-12-20T03:28:10.809Z,-0.99
2022-12-20T03:31:15.742Z,-0.86
2022-12-20T03:34:23.312Z,-0.76
2022-12-20T03:37:28.267Z,-0.86
2022-12-20T03:40:33.216Z,-0.94
2022-12-20T03:43:38.060Z,-0.89
2022-12-20T03:46:43.029Z,-0.94
2022-12-20T03:49:52.069Z,-0.86
2022-12-20T03:52:56.988Z,-0.92
2022-12-20T03:56:01.918Z,-0.93
2022-12-20T03:59:06.809Z,-0.75
2022-12-20T04:02:11.905Z,-0.84
2022-12-20T04:05:19.771Z,-0.85
2022-12-20T04:08:24.716Z,-0.75
2022-12-20T04:11:29.825Z,-0.77
2022-12-20T04:14:35.985Z,-0.89
2022-12-20T04:17:40.956Z,-0.88
2022-12-20T04:20:48.771Z,-0.81
2022-12-20T04:23:56.050Z,-0.71
2022-12-20T04:27:00.963Z,-0.96
2022-12-20T04:30:05.821Z,-0.84
2022-12-20T04:33:10.794Z,-0.96
2022-12-20T04:36:18.958Z,-0.86
2022-12-20T04:39:23.938Z,-0.84
2022-12-20T04:42:28.968Z,-0.94
2022-12-20T04:45:34.015Z,-0.85
2022-12-20T04:48:58.239Z,-0.79
2022-12-20T04:52:19.119Z,-0.77
2022-12-20T04:55:24.011Z,-0.65
2022-12-20T04:58:29.281Z,-0.66
2022-12-20T05:01:34.506Z,-0.65
2022-12-20T05:04:40.361Z,-0.62
2022-12-20T05:07:48.059Z,-0.43
2022-12-20T05:10:52.979Z,-0.73
2022-12-20T05:13:57.944Z,-0.67
2022-12-20T05:17:02.857Z,-0.62
2022-12-20T05:20:10.325Z,-0.74
2022-12-20T05:23:30.437Z,-0.73
2022-12-20T05:26:37.563Z,-0.74
2022-12-20T05:29:42.352Z,-0.58
2022-12-20T05:32:47.747Z,-0.71
2022-12-20T05:35:52.940Z,-0.53
2022-12-20T05:39:04.391Z,-0.67
2022-12-20T05:42:09.798Z,-0.58
2022-12-20T05:45:15.262Z,-0.68
2022-12-20T05:48:22.196Z,-0.63
2022-12-20T05:51:27.264Z,-0.68
2022-12-20T05:54:34.789Z,-0.60
2022-12-20T05:57:39.700Z,-0.80
2022-12-20T06:00:45.188Z,-0.64
2022-12-20T06:03:51.383Z,-0.72
2022-12-20T06:06:56.484Z,-0.68
2022-12-20T06:10:04.211Z,-0.61
2022-12-20T06:13:09.487Z,-0.58
2022-12-20T06:16:19.841Z,-0.59
2022-12-20T06:19:24.933Z,-0.66
2022-12-20T06:22:30.729Z,-0.58
2022-12-20T06:25:39.801Z,-0.66
2022-12-20T06:28:46.168Z,-0.72
2022-12-20T06:31:51.054Z,-0.80
2022-12-20T06:34:55.859Z,-0.76
2022-12-20T06:38:00.743Z,-0.71
2022-12-20T06:41:08.645Z,-0.75
2022-12-20T06:44:13.529Z,-0.82
2022-12-20T06:47:18.918Z,-0.87
2022-12-20T06:50:23.862Z,-0.84
2022-12-20T06:53:28.743Z,-0.76
2022-12-20T06:56:41.008Z,-0.45
2022-12-20T06:59:46.415Z,-0.52
2022-12-20T07:02:51.741Z,-0.47
2022-12-20T07:05:57.420Z,-0.53
2022-12-20T07:09:02.437Z,-0.54
2022-12-20T07:12:10.555Z,-0.63
2022-12-20T07:15:15.478Z,-0.60
2022-12-20T07:18:20.395Z,-0.40
2022-12-20T07:21:26.130Z,-0.57
2022-12-20T07:24:31.012Z,-0.56
2022-12-20T07:27:38.696Z,-0.60
2022-12-20T07:30:43.750Z,-0.41
2022-12-20T07:33:48.651Z,-0.54
2022-12-20T07:36:53.559Z,-0.52
2022-12-20T07:39:58.650Z,-0.42
2022-12-20T07:43:06.129Z,-0.37
2022-12-20T07:46:11.987Z,-0.39
2022-12-20T07:49:17.239Z,-0.43
2022-12-20T07:52:25.704Z,-0.21
2022-12-20T07:55:31.507Z,-0.29
2022-12-20T07:58:42.725Z,-0.24
2022-12-20T08:01:48.838Z,-0.36
2022-12-20T08:04:54.006Z,-0.13
2022-12-20T08:08:00.541Z,-0.01
2022-12-20T08:11:06.562Z,0.11
2022-12-20T08:14:15.536Z,-0.17
2022-12-20T08:17:20.396Z,-0.29
2022-12-20T08:20:25.398Z,-0.24
2022-12-20T08:23:30.315Z,-0.19
2022-12-20T08:26:35.264Z,-0.09
2022-12-20T08:29:42.737Z,-0.03
2022-12-20T08:32:47.571Z,0.05
2022-12-20T08:36:00.531Z,-0.06
2022-12-20T08:39:05.974Z,-0.07
2022-12-20T08:42:11.480Z,-0.04
2022-12-20T08:45:19.505Z,0.13
2022-12-20T08:48:25.688Z,0.20
2022-12-20T08:51:30.614Z,0.05
2022-12-20T08:54:35.580Z,0.02
2022-12-20T08:57:40.404Z,0.23
2022-12-20T09:00:47.880Z,0.43
2022-12-20T09:03:52.823Z,0.34
2022-12-20T09:06:57.706Z,0.20
2022-12-20T09:10:02.631Z,0.27
2022-12-20T09:13:07.464Z,0.50
2022-12-20T09:16:17.506Z,0.90
2022-12-20T09:19:22.431Z,1.07
2022-12-20T09:22:27.191Z,1.37
2022-12-20T09:25:32.027Z,1.44
2022-12-20T09:28:37.548Z,1.36
2022-12-20T09:31:45.228Z,1.37
2022-12-20T09:34:50.437Z,2.07
2022-12-20T09:37:55.243Z,1.86
2022-12-20T09:41:03.682Z,1.83
2022-12-20T09:44:15.412Z,1.63
2022-12-20T09:47:25.770Z,1.28
2022-12-20T09:50:46.699Z,1.46
2022-12-20T09:54:03.806Z,1.60
2022-12-20T09:57:15.987Z,1.99
2022-12-20T10:00:22.801Z,1.52
2022-12-20T10:03:34.429Z,2.09
2022-12-20T10:06:47.967Z,1.87
2022-12-20T10:10:09.690Z,2.08
2022-12-20T10:13:27.387Z,2.10
2022-12-20T10:16:45.493Z,2.05
2022-12-20T10:20:18.912Z,2.56
2022-12-20T10:23:33.593Z,2.45
2022-12-20T10:26:38.803Z,2.33
2022-12-20T10:29:44.147Z,1.86
2022-12-20T10:32:51.475Z,1.70
2022-12-20T10:35:59.053Z,1.56
2022-12-20T10:39:05.864Z,2.00
2022-12-20T10:42:28.198Z,2.04
2022-12-20T10:45:38.853Z,2.04
2022-12-20T10:48:45.740Z,2.22
2022-12-20T10:51:59.039Z,2.23
2022-12-20T10:55:03.979Z,2.27
2022-12-20T10:58:16.587Z,2.33
2022-12-20T11:01:23.832Z,2.28
2022-12-20T11:04:31.427Z,2.34
2022-12-20T11:07:43.601Z,2.27
2022-12-20T11:11:16.521Z,2.57
2022-12-20T11:14:23.275Z,2.61
2022-12-20T11:17:40.093Z,2.84
2022-12-20T11:20:50.754Z,2.51
2022-12-20T11:24:05.477Z,2.43
2022-12-20T11:27:22.627Z,2.46
2022-12-20T11:30:29.938Z,2.70
2022-12-20T11:33:46.121Z,2.55
2022-12-20T11:37:06.749Z,2.52
2022-12-20T11:40:27.281Z,2.50
2022-12-20T11:44:23.343Z,2.42
2022-12-20T11:47:34.909Z,2.35
2022-12-20T11:50:57.513Z,2.04
2022-12-20T11:54:07.426Z,2.17
2022-12-20T11:57:21.013Z,2.22
2022-12-20T12:00:27.605Z,2.21
2022-12-20T12:03:37.777Z,2.20
2022-12-20T12:06:46.994Z,2.34
2022-12-20T12:09:59.048Z,2.62
2022-12-20T12:13:16.253Z,2.27
2022-12-20T12:16:27.327Z,2.40
2022-12-20T12:19:34.604Z,2.19
2022-12-20T12:22:42.754Z,2.16
2022-12-20T12:25:47.734Z,2.45
2022-12-20T12:28:57.959Z,2.32
2022-12-20T12:32:09.997Z,2.30
2022-12-20T12:35:33.613Z,2.06
2022-12-20T12:39:06.050Z,2.28
2022-12-20T12:42:42.698Z,2.23
2022-12-20T12:45:52.815Z,2.40
2022-12-20T12:49:02.524Z,2.40
2022-12-20T12:52:08.563Z,2.18
2022-12-20T12:55:38.669Z,2.26
2022-12-20T12:58:48.804Z,2.29
2022-12-20T13:01:58.267Z,2.28
2022-12-20T13:05:05.229Z,2.31
2022-12-20T13:08:19.078Z,2.26
2022-12-20T13:11:34.035Z,2.24
2022-12-20T13:14:55.079Z,1.94
2022-12-20T13:18:03.656Z,2.03
2022-12-20T13:21:39.124Z,2.11
2022-12-20T13:24:59.597Z,1.95
2022-12-20T13:28:34.203Z,2.01
2022-12-20T13:31:39.169Z,1.90
2022-12-20T13:34:59.857Z,2.00
2022-12-20T13:38:07.529Z,1.97
2022-12-20T13:41:32.616Z,2.34
2022-12-20T13:44:45.242Z,2.16
2022-12-20T13:47:56.030Z,2.32
2022-12-20T13:51:04.285Z,2.46
2022-12-20T13:54:21.693Z,2.29
2022-12-20T13:57:33.810Z,2.31
2022-12-20T14:00:38.671Z,2.24
2022-12-20T14:03:45.127Z,2.14
2022-12-20T14:06:59.591Z,1.95
2022-12-20T14:10:07.812Z,2.17
2022-12-20T14:13:24.401Z,2.25
2022-12-20T14:16:31.684Z,2.26
2022-12-20T14:19:36.542Z,2.24
2022-12-20T14:22:48.886Z,2.28
2022-12-20T14:25:56.997Z,2.18
2022-12-20T14:29:07.845Z,2.08
2022-12-20T14:32:22.993Z,2.14
2022-12-20T14:35:28.655Z,2.10
2022-12-20T14:38:36.309Z,2.12
2022-12-20T14:41:42.912Z,2.20
2022-12-20T14:44:47.859Z,2.08
2022-12-20T14:47:58.143Z,1.99
2022-12-20T14:51:02.965Z,1.93
2022-12-20T14:54:39.489Z,1.90
2022-12-20T14:57:47.451Z,2.03
2022-12-20T15:01:00.104Z,1.99
2022-12-20T15:04:05.408Z,1.92
2022-12-20T15:07:32.261Z,1.79
2022-12-20T15:10:42.327Z,1.76
2022-12-20T15:13:50.401Z,1.78
2022-12-20T15:16:55.708Z,1.94
2022-12-20T15:20:02.113Z,2.04
2022-12-20T15:23:07.149Z,2.06
2022-12-20T15:26:18.092Z,1.95
2022-12-20T15:29:25.827Z,2.03
2022-12-20T15:32:32.267Z,1.79
2022-12-20T15:35:37.341Z,1.88
2022-12-20T15:42:10.729Z,1.81
2022-12-20T15:45:16.622Z,1.93
2022-12-20T15:48:23.223Z,2.08
2022-12-20T15:51:31.424Z,1.89
2022-12-20T15:54:38.560Z,1.67
2022-12-20T15:57:46.220Z,1.63
2022-12-20T16:00:51.138Z,1.50
2022-12-20T16:03:56.177Z,1.55
2022-12-20T16:07:01.034Z,1.62
2022-12-20T16:10:06.874Z,1.54
2022-12-20T16:13:21.097Z,1.78
2022-12-20T16:16:28.177Z,1.85
2022-12-20T16:19:33.155Z,1.61
2022-12-20T16:22:37.934Z,1.49
2022-12-20T16:25:42.792Z,1.56
2022-12-20T16:28:52.575Z,1.70
2022-12-20T16:31:57.514Z,1.64
2022-12-20T16:35:02.352Z,1.70
2022-12-20T16:38:07.794Z,1.57
2022-12-20T16:41:16.263Z,1.53
2022-12-20T16:44:23.768Z,1.50
2022-12-20T16:47:28.729Z,1.43
2022-12-20T16:50:33.721Z,1.35
2022-12-20T16:54:09.885Z,1.59
2022-12-20T16:57:03.339Z,1.38
2022-12-20T17:00:14.153Z,1.38
2022-12-20T17:03:19.179Z,1.41
2022-12-20T17:06:24.345Z,1.34
2022-12-20T17:12:48.855Z,1.43
2022-12-20T17:15:56.807Z,1.48
2022-12-20T17:19:02.269Z,1.46
2022-12-20T17:25:28.979Z,1.60
2022-12-20T17:28:33.786Z,1.52
2022-12-20T17:31:43.001Z,1.70
2022-12-20T17:34:47.999Z,1.60
2022-12-20T17:37:55.942Z,1.82
2022-12-20T17:41:00.732Z,1.73
2022-12-20T17:44:07.279Z,1.87
2022-12-20T17:47:14.755Z,1.55
2022-12-20T17:50:19.930Z,1.46
2022-12-20T17:53:24.706Z,1.64
2022-12-20T17:56:31.276Z,1.53
2022-12-20T17:59:36.127Z,1.61
2022-12-20T18:02:43.765Z,1.47
2022-12-20T18:05:49.451Z,1.58
2022-12-20T18:08:55.718Z,1.67
2022-12-20T18:12:00.591Z,1.78
2022-12-20T18:15:07.511Z,1.58
2022-12-20T18:18:14.841Z,1.56
2022-12-20T18:21:21.447Z,1.56
2022-12-20T18:24:26.231Z,1.49
2022-12-20T18:27:31.159Z,1.49
2022-12-20T18:30:36.789Z,1.47
2022-12-20T18:33:44.379Z,1.47
2022-12-20T18:36:49.611Z,1.34
2022-12-20T18:39:54.604Z,1.28
2022-12-20T18:43:05.634Z,1.42
2022-12-20T18:46:14.619Z,1.43
2022-12-20T18:49:22.181Z,1.58
2022-12-20T18:52:27.430Z,1.49
2022-12-20T18:55:32.402Z,1.32
2022-12-20T18:58:37.292Z,1.34
2022-12-20T19:01:43.844Z,1.39
2022-12-20T19:04:51.410Z,1.37
2022-12-20T19:07:56.299Z,1.33
2022-12-20T19:11:02.624Z,1.31
2022-12-20T19:14:07.765Z,1.35
2022-12-20T19:17:12.979Z,1.35
2022-12-20T19:20:23.117Z,1.30
2022-12-20T19:23:27.933Z,1.31
2022-12-20T19:26:32.784Z,1.35
2022-12-20T19:29:37.534Z,1.44
2022-12-20T19:32:42.550Z,1.46
2022-12-20T19:35:57.318Z,1.42
2022-12-20T19:39:04.044Z,1.50
2022-12-20T19:42:23.578Z,1.59
2022-12-20T19:45:29.577Z,1.50
2022-12-20T19:48:35.933Z,1.60
2022-12-20T19:51:43.905Z,1.44
2022-12-20T19:54:48.733Z,1.48
2022-12-20T19:57:53.593Z,1.37
2022-12-20T20:00:58.472Z,1.55
2022-12-20T20:04:05.405Z,1.49
2022-12-20T20:07:12.871Z,1.42
2022-12-20T20:10:17.830Z,1.76
2022-12-20T20:13:22.912Z,1.49
2022-12-20T20:16:27.802Z,1.53
2022-12-20T20:19:32.738Z,1.58
2022-12-20T20:22:40.280Z,1.66
2022-12-20T20:25:48.037Z,1.53
2022-12-20T20:28:53.478Z,1.53
2022-12-20T20:31:58.419Z,1.49
2022-12-20T20:35:03.203Z,1.45
2022-12-20T20:38:13.943Z,1.34
2022-12-20T20:41:19.028Z,1.44
2022-12-20T20:44:24.111Z,1.41
2022-12-20T20:47:29.008Z,1.37
2022-12-20T20:50:33.794Z,1.70
2022-12-20T20:53:41.721Z,1.39
2022-12-20T20:56:46.540Z,1.38
2022-12-20T20:59:51.442Z,1.32
2022-12-20T21:02:56.555Z,1.56
2022-12-20T21:09:28.973Z,1.58
2022-12-20T21:12:33.804Z,1.65
2022-12-20T21:15:39.326Z,1.46
2022-12-20T21:18:44.732Z,1.49
2022-12-20T21:21:49.534Z,1.53
2022-12-20T21:24:57.419Z,1.44
2022-12-20T21:28:02.313Z,1.68
2022-12-20T21:31:09.250Z,1.50
2022-12-20T21:34:14.097Z,1.35
2022-12-20T21:37:18.920Z,1.34
2022-12-20T21:40:26.375Z,1.22
2022-12-20T21:43:31.493Z,1.20
2022-12-20T21:46:37.075Z,1.21
2022-12-20T21:49:41.921Z,1.13
2022-12-20T21:52:46.769Z,1.21
2022-12-20T21:55:56.762Z,1.34
2022-12-20T21:59:02.621Z,1.25
2022-12-20T22:02:07.657Z,1.25
2022-12-20T22:05:12.573Z,1.23
2022-12-20T22:08:17.655Z,1.35
2022-12-20T22:11:25.326Z,1.45
2022-12-20T22:14:30.161Z,1.28
2022-12-20T22:17:34.975Z,1.32
2022-12-20T22:20:39.704Z,1.44
2022-12-20T22:23:45.573Z,1.35
2022-12-20T22:26:53.127Z,1.36
2022-12-20T22:29:58.069Z,1.44
2022-12-20T22:33:02.931Z,1.51
2022-12-20T22:36:09.384Z,1.52
2022-12-20T22:39:14.492Z,1.53
2022-12-20T22:42:22.016Z,1.50
2022-12-20T22:45:26.843Z,1.61
2022-12-20T22:48:31.905Z,1.57
2022-12-20T22:51:36.673Z,1.60
2022-12-20T22:54:41.430Z,1.66
2022-12-20T22:57:48.787Z,1.79
2022-12-20T23:00:53.588Z,1.75
2022-12-20T23:03:58.518Z,1.70
2022-12-20T23:07:03.329Z,1.76
2022-12-20T23:10:29.340Z,1.86
2022-12-20T23:13:52.181Z,1.77
2022-12-20T23:16:57.130Z,1.79
2022-12-20T23:20:14.434Z,1.92
2022-12-20T23:23:19.409Z,1.84
2022-12-20T23:26:24.807Z,2.05
2022-12-20T23:29:32.851Z,2.01
2022-12-20T23:32:37.942Z,1.98
2022-12-20T23:35:42.785Z,2.06
2022-12-20T23:38:47.558Z,2.08
2022-12-20T23:41:52.329Z,1.98
2022-12-20T23:44:59.948Z,1.93
2022-12-20T23:48:04.693Z,1.88
2022-12-20T23:51:10.240Z,1.96
2022-12-20T23:54:15.239Z,2.01
2022-12-20T23:57:20.089Z,1.94
